createdAt,value
2023-04-27T00:01:11.168Z,9.22
2023-04-27T00:03:38.168Z,9.29
2023-04-27T00:06:05.069Z,9.19
2023-04-27T00:08:32.067Z,9.17
2023-04-27T00:10:58.612Z,9.26
2023-04-27T00:13:25.439Z,9.19
2023-04-27T00:15:52.065Z,9.12
2023-04-27T00:18:18.777Z,9.15
2023-04-27T00:20:45.438Z,9.15
2023-04-27T00:23:12.021Z,9.18
2023-04-27T00:25:38.782Z,9.22
2023-04-27T00:28:05.405Z,9.13
2023-04-27T00:30:31.988Z,8.98
2023-04-27T00:32:58.560Z,8.88
2023-04-27T00:35:25.175Z,8.93
2023-04-27T00:37:54.007Z,9.02
2023-04-27T00:40:21.359Z,8.96
2023-04-27T00:42:47.905Z,8.87
2023-04-27T00:45:14.606Z,8.93
2023-04-27T00:47:42.095Z,8.83
2023-04-27T00:50:10.377Z,8.89
2023-04-27T00:52:37.480Z,8.85
2023-04-27T00:55:05.214Z,8.78
2023-04-27T00:57:33.271Z,8.80
2023-04-27T01:00:00.613Z,8.76
2023-04-27T01:02:27.908Z,8.72
2023-04-27T01:04:55.733Z,8.68
2023-04-27T01:07:25.792Z,8.68
2023-04-27T01:09:52.768Z,8.58
2023-04-27T01:12:19.491Z,8.58
2023-04-27T01:14:47.094Z,8.66
2023-04-27T01:17:14.158Z,8.53
2023-04-27T01:19:41.181Z,8.56
2023-04-27T01:22:08.282Z,8.57
2023-04-27T01:24:35.043Z,8.52
2023-04-27T01:27:02.597Z,8.59
2023-04-27T01:29:29.269Z,8.53
2023-04-27T01:31:55.798Z,8.54
2023-04-27T01:34:22.321Z,8.57
2023-04-27T01:36:48.855Z,8.62
2023-04-27T01:39:16.438Z,8.67
2023-04-27T01:41:43.027Z,8.62
2023-04-27T01:44:09.614Z,8.59
2023-04-27T01:46:36.214Z,8.58
2023-04-27T01:49:03.029Z,8.61
2023-04-27T01:51:29.732Z,8.64
2023-04-27T01:53:56.265Z,8.47
2023-04-27T01:56:22.796Z,8.34
2023-04-27T01:58:49.365Z,8.48
2023-04-27T02:01:16.130Z,8.38
2023-04-27T02:03:42.785Z,8.43
2023-04-27T02:06:09.449Z,8.37
2023-04-27T02:08:36.040Z,8.22
2023-04-27T02:11:02.706Z,8.20
2023-04-27T02:13:29.259Z,8.23
2023-04-27T02:15:56.330Z,8.34
2023-04-27T02:18:23.110Z,8.39
2023-04-27T02:20:49.900Z,8.35
2023-04-27T02:23:16.669Z,8.42
2023-04-27T02:25:46.651Z,8.23
2023-04-27T02:28:14.127Z,8.19
2023-04-27T02:30:41.345Z,8.18
2023-04-27T02:33:08.160Z,8.24
2023-04-27T02:35:34.819Z,8.19
2023-04-27T02:38:01.596Z,8.26
2023-04-27T02:40:28.376Z,8.16
2023-04-27T02:42:54.998Z,8.22
2023-04-27T02:45:21.564Z,8.15
2023-04-27T02:47:48.229Z,8.04
2023-04-27T02:50:14.829Z,8.06
2023-04-27T02:52:41.354Z,8.08
2023-04-27T02:55:08.213Z,8.10
2023-04-27T02:57:34.936Z,8.10
2023-04-27T03:00:02.730Z,8.12
2023-04-27T03:02:30.182Z,8.04
2023-04-27T03:04:57.460Z,8.00
2023-04-27T03:07:24.029Z,8.13
2023-04-27T03:09:50.557Z,8.16
2023-04-27T03:12:17.140Z,8.12
2023-04-27T03:14:43.702Z,8.18
2023-04-27T03:17:10.415Z,8.25
2023-04-27T03:19:37.183Z,8.28
2023-04-27T03:22:03.696Z,8.17
2023-04-27T03:24:30.912Z,8.17
2023-04-27T03:26:57.496Z,8.14
2023-04-27T03:30:01.458Z,8.24
2023-04-27T03:32:27.998Z,8.13
2023-04-27T03:34:54.960Z,8.14
2023-04-27T03:37:21.493Z,8.04
2023-04-27T03:39:48.126Z,8.05
2023-04-27T03:42:14.745Z,8.18
2023-04-27T03:44:41.293Z,8.03
2023-04-27T03:47:09.667Z,7.89
2023-04-27T03:49:36.549Z,7.87
2023-04-27T03:52:03.643Z,8.03
2023-04-27T03:54:33.033Z,8.12
2023-04-27T03:56:59.567Z,8.21
2023-04-27T03:59:29.740Z,8.08
2023-04-27T04:01:59.502Z,8.09
2023-04-27T04:04:27.917Z,7.99
2023-04-27T04:06:54.581Z,7.97
2023-04-27T04:09:23.709Z,8.05
2023-04-27T04:11:52.352Z,8.00
2023-04-27T04:14:18.857Z,8.08
2023-04-27T04:16:45.381Z,8.08
2023-04-27T04:19:12.159Z,7.97
2023-04-27T04:21:38.812Z,8.01
2023-04-27T04:24:06.169Z,8.03
2023-04-27T04:26:33.528Z,8.06
2023-04-27T04:29:00.082Z,8.04
2023-04-27T04:31:27.693Z,8.09
2023-04-27T04:33:54.265Z,8.09
2023-04-27T04:36:20.872Z,8.08
2023-04-27T04:38:47.448Z,8.03
2023-04-27T04:41:14.033Z,7.97
2023-04-27T04:43:40.898Z,8.04
2023-04-27T04:46:07.587Z,7.92
2023-04-27T04:48:34.647Z,7.96
2023-04-27T04:51:01.210Z,7.94
2023-04-27T04:53:27.778Z,8.09
2023-04-27T04:55:54.374Z,8.10
2023-04-27T04:58:21.021Z,8.09
2023-04-27T05:00:47.573Z,8.08
2023-04-27T05:03:14.201Z,8.09
2023-04-27T05:05:40.918Z,8.04
2023-04-27T05:08:07.550Z,8.03
2023-04-27T05:10:34.106Z,8.04
2023-04-27T05:13:00.621Z,8.02
2023-04-27T05:15:27.191Z,7.97
2023-04-27T05:17:54.365Z,7.90
2023-04-27T05:20:21.393Z,8.02
2023-04-27T05:22:47.975Z,8.07
2023-04-27T05:25:14.536Z,8.13
2023-04-27T05:27:41.134Z,8.04
2023-04-27T05:30:08.239Z,8.05
2023-04-27T05:32:36.786Z,8.01
2023-04-27T05:35:04.900Z,7.91
2023-04-27T05:37:31.500Z,7.85
2023-04-27T05:39:58.079Z,7.97
2023-04-27T05:42:24.572Z,7.97
2023-04-27T05:44:51.098Z,7.91
2023-04-27T05:47:17.614Z,7.88
2023-04-27T05:49:44.270Z,7.92
2023-04-27T05:52:10.836Z,7.88
2023-04-27T05:54:37.378Z,8.00
2023-04-27T05:57:03.955Z,7.92
2023-04-27T05:59:30.643Z,8.00
2023-04-27T06:01:57.635Z,7.99
2023-04-27T06:04:24.370Z,8.05
2023-04-27T06:06:51.063Z,7.95
2023-04-27T06:09:17.562Z,8.01
2023-04-27T06:11:44.809Z,7.88
2023-04-27T06:14:11.584Z,8.01
2023-04-27T06:16:38.135Z,8.00
2023-04-27T06:19:04.678Z,7.94
2023-04-27T06:21:36.033Z,7.88
2023-04-27T06:24:02.549Z,7.98
2023-04-27T06:26:29.089Z,8.01
2023-04-27T06:28:56.250Z,7.96
2023-04-27T06:31:22.917Z,8.00
2023-04-27T06:33:49.466Z,7.92
2023-04-27T06:36:16.179Z,8.05
2023-04-27T06:38:42.916Z,8.14
2023-04-27T06:41:09.511Z,8.05
2023-04-27T06:43:36.074Z,8.10
2023-04-27T06:46:02.974Z,8.08
2023-04-27T06:48:29.563Z,8.20
2023-04-27T06:50:56.673Z,8.27
2023-04-27T06:53:23.286Z,8.30
2023-04-27T06:55:51.079Z,8.25
2023-04-27T06:58:17.658Z,8.19
2023-04-27T07:00:44.209Z,8.29
2023-04-27T07:03:11.120Z,8.18
2023-04-27T07:05:37.957Z,8.23
2023-04-27T07:08:08.235Z,8.17
2023-04-27T07:10:35.463Z,8.15
2023-04-27T07:13:02.137Z,8.22
2023-04-27T07:15:28.673Z,8.23
2023-04-27T07:17:55.311Z,8.17
2023-04-27T07:20:23.342Z,8.09
2023-04-27T07:22:49.849Z,8.15
2023-04-27T07:25:17.599Z,8.28
2023-04-27T07:27:45.278Z,8.24
2023-04-27T07:30:24.316Z,8.24
2023-04-27T07:32:54.714Z,8.21
2023-04-27T07:35:21.813Z,8.23
2023-04-27T07:37:48.956Z,8.32
2023-04-27T07:40:16.515Z,8.32
2023-04-27T07:42:43.421Z,8.47
2023-04-27T07:45:10.346Z,8.36
2023-04-27T07:47:37.189Z,8.30
2023-04-27T07:50:04.736Z,8.30
2023-04-27T07:52:31.285Z,8.31
2023-04-27T07:54:57.825Z,8.42
2023-04-27T07:57:24.355Z,8.47
2023-04-27T07:59:50.983Z,8.25
2023-04-27T08:02:20.353Z,8.38
2023-04-27T08:04:48.161Z,8.55
2023-04-27T08:07:19.406Z,8.64
2023-04-27T08:09:46.415Z,8.59
2023-04-27T08:12:14.337Z,8.51
2023-04-27T08:14:41.121Z,8.47
2023-04-27T08:17:07.719Z,8.34
2023-04-27T08:19:34.446Z,8.43
2023-04-27T08:22:01.247Z,8.37
2023-04-27T08:24:27.787Z,8.37
2023-04-27T08:26:54.331Z,8.32
2023-04-27T08:29:27.981Z,8.30
2023-04-27T08:31:59.669Z,8.19
2023-04-27T08:34:27.080Z,8.26
2023-04-27T08:36:54.208Z,8.19
2023-04-27T08:39:21.420Z,8.22
2023-04-27T08:41:47.961Z,8.39
2023-04-27T08:44:14.799Z,8.50
2023-04-27T08:46:41.618Z,8.49
2023-04-27T08:49:08.527Z,8.29
2023-04-27T08:51:35.279Z,8.45
2023-04-27T08:54:02.313Z,8.46
2023-04-27T08:56:29.966Z,8.34
2023-04-27T08:58:58.014Z,8.36
2023-04-27T09:01:26.061Z,8.30
2023-04-27T09:03:57.522Z,8.26
2023-04-27T09:06:32.634Z,8.57
2023-04-27T09:08:59.830Z,8.50
2023-04-27T09:11:29.352Z,8.56
2023-04-27T09:13:55.897Z,8.55
2023-04-27T09:16:27.219Z,8.68
2023-04-27T09:18:53.996Z,8.55
2023-04-27T09:21:24.542Z,8.40
2023-04-27T09:23:51.509Z,8.34
2023-04-27T09:26:25.969Z,8.28
2023-04-27T09:28:54.432Z,8.40
2023-04-27T09:31:21.346Z,8.46
2023-04-27T09:33:55.919Z,8.41
2023-04-27T09:36:23.260Z,8.37
2023-04-27T09:38:51.494Z,8.39
2023-04-27T09:41:18.291Z,8.28
2023-04-27T09:43:46.277Z,8.31
2023-04-27T09:46:16.487Z,8.24
2023-04-27T09:48:43.100Z,8.32
2023-04-27T09:51:09.699Z,8.30
2023-04-27T09:53:46.938Z,8.27
2023-04-27T09:56:22.126Z,8.33
2023-04-27T09:59:07.687Z,8.19
2023-04-27T10:01:43.680Z,8.29
2023-04-27T10:04:20.515Z,8.23
2023-04-27T10:06:54.266Z,8.40
2023-04-27T10:09:25.827Z,8.45
2023-04-27T10:11:53.903Z,8.45
2023-04-27T10:14:24.803Z,8.49
2023-04-27T10:16:55.433Z,8.28
2023-04-27T10:19:23.558Z,8.32
2023-04-27T10:21:53.042Z,8.26
2023-04-27T10:24:19.732Z,8.28
2023-04-27T10:26:48.155Z,8.42
2023-04-27T10:29:16.512Z,8.44
2023-04-27T10:31:48.255Z,8.49
2023-04-27T10:34:21.223Z,8.55
2023-04-27T10:36:48.144Z,8.58
2023-04-27T10:39:18.897Z,8.58
2023-04-27T10:41:53.026Z,8.48
2023-04-27T10:44:24.753Z,8.49
2023-04-27T10:46:56.070Z,8.51
2023-04-27T10:49:23.321Z,8.34
2023-04-27T10:51:51.441Z,8.51
2023-04-27T10:54:18.773Z,8.48
2023-04-27T10:56:45.825Z,8.59
2023-04-27T10:59:12.717Z,8.52
2023-04-27T11:01:40.265Z,8.55
2023-04-27T11:04:07.279Z,8.50
2023-04-27T11:06:42.706Z,8.54
2023-04-27T11:09:10.893Z,8.51
2023-04-27T11:11:37.494Z,8.60
2023-04-27T11:14:10.183Z,8.68
2023-04-27T11:16:37.509Z,8.63
2023-04-27T11:19:05.609Z,8.57
2023-04-27T11:21:32.480Z,8.47
2023-04-27T11:24:06.534Z,8.37
2023-04-27T11:26:33.500Z,8.34
2023-04-27T11:29:13.737Z,8.28
2023-04-27T11:31:48.773Z,8.32
2023-04-27T11:34:17.323Z,8.44
2023-04-27T11:36:44.071Z,8.35
2023-04-27T11:39:21.710Z,8.34
2023-04-27T11:41:48.291Z,8.44
2023-04-27T11:44:14.819Z,8.36
2023-04-27T11:46:44.973Z,8.39
2023-04-27T11:49:12.621Z,8.38
2023-04-27T11:51:40.000Z,8.41
2023-04-27T11:54:07.775Z,8.28
2023-04-27T11:56:39.328Z,8.24
2023-04-27T11:59:06.187Z,8.22
2023-04-27T12:01:38.034Z,8.38
2023-04-27T12:04:05.344Z,8.30
2023-04-27T12:06:33.742Z,8.41
2023-04-27T12:09:00.965Z,8.53
2023-04-27T12:11:27.921Z,8.52
2023-04-27T12:13:55.541Z,8.51
2023-04-27T12:16:22.727Z,8.48
2023-04-27T12:18:52.393Z,8.62
2023-04-27T12:21:19.066Z,8.68
2023-04-27T12:23:45.712Z,8.74
2023-04-27T12:26:14.952Z,8.88
2023-04-27T12:28:41.962Z,8.91
2023-04-27T12:31:08.758Z,8.90
2023-04-27T12:33:35.356Z,8.96
2023-04-27T12:36:01.944Z,8.96
2023-04-27T12:38:29.218Z,8.94
2023-04-27T12:40:56.240Z,8.93
2023-04-27T12:43:22.771Z,8.96
2023-04-27T12:45:49.332Z,9.04
2023-04-27T12:48:17.565Z,9.16
2023-04-27T12:50:44.357Z,9.17
2023-04-27T12:53:10.950Z,9.16
2023-04-27T12:55:37.474Z,9.25
2023-04-27T12:58:04.894Z,9.26
2023-04-27T13:00:31.580Z,9.18
2023-04-27T13:02:58.621Z,9.05
2023-04-27T13:05:26.016Z,8.95
2023-04-27T13:07:52.887Z,8.83
2023-04-27T13:10:19.379Z,8.91
2023-04-27T13:12:45.948Z,8.94
2023-04-27T13:15:12.603Z,8.91
2023-04-27T13:17:40.272Z,8.99
2023-04-27T13:20:09.011Z,9.04
2023-04-27T13:22:35.754Z,9.16
2023-04-27T13:25:02.346Z,9.19
2023-04-27T13:27:28.946Z,9.20
2023-04-27T13:29:55.998Z,9.21
2023-04-27T13:32:22.862Z,9.23
2023-04-27T13:34:49.558Z,9.14
2023-04-27T13:37:16.812Z,9.06
2023-04-27T13:39:43.330Z,9.11
2023-04-27T13:42:10.162Z,9.09
2023-04-27T13:44:37.365Z,8.99
2023-04-27T13:47:04.061Z,9.01
2023-04-27T13:49:30.894Z,9.13
2023-04-27T13:51:58.473Z,9.19
2023-04-27T13:54:25.093Z,9.27
2023-04-27T13:56:51.672Z,9.27
2023-04-27T13:59:18.259Z,9.29
2023-04-27T14:01:44.810Z,9.25
2023-04-27T14:04:11.546Z,9.24
2023-04-27T14:06:38.252Z,9.21
2023-04-27T14:09:04.908Z,9.20
2023-04-27T14:11:37.216Z,9.14
2023-04-27T14:14:08.942Z,9.10
2023-04-27T14:16:35.740Z,8.98
2023-04-27T14:19:02.389Z,8.96
2023-04-27T14:21:28.955Z,9.05
2023-04-27T14:23:55.753Z,9.09
2023-04-27T14:26:22.265Z,9.12
2023-04-27T14:28:48.891Z,9.16
2023-04-27T14:31:16.029Z,9.16
2023-04-27T14:33:42.576Z,9.12
2023-04-27T14:36:09.459Z,9.12
2023-04-27T14:38:35.975Z,9.18
2023-04-27T14:41:05.546Z,9.20
2023-04-27T14:43:32.166Z,9.16
2023-04-27T14:46:05.104Z,9.13
2023-04-27T14:48:38.852Z,9.15
2023-04-27T14:51:06.353Z,9.10
2023-04-27T14:53:32.903Z,9.18
2023-04-27T14:55:59.489Z,9.13
2023-04-27T14:58:26.151Z,9.17
2023-04-27T15:00:52.697Z,9.12
2023-04-27T15:03:20.318Z,9.13
2023-04-27T15:05:47.023Z,9.10
2023-04-27T15:08:13.552Z,9.09
2023-04-27T15:10:40.115Z,9.12
2023-04-27T15:13:06.649Z,9.18
2023-04-27T15:15:33.234Z,9.26
2023-04-27T15:17:59.895Z,9.28
2023-04-27T15:20:26.873Z,9.29
2023-04-27T15:22:53.521Z,9.25
2023-04-27T15:25:20.341Z,9.21
2023-04-27T15:27:47.022Z,9.21
2023-04-27T15:30:14.489Z,9.21
2023-04-27T15:32:41.144Z,9.19
2023-04-27T15:35:08.319Z,9.19
2023-04-27T15:37:36.062Z,9.24
2023-04-27T15:40:04.129Z,9.19
2023-04-27T15:42:30.747Z,9.22
2023-04-27T15:44:57.935Z,9.24
2023-04-27T15:47:24.572Z,9.15
2023-04-27T15:49:57.625Z,9.17
2023-04-27T15:52:25.649Z,9.23
2023-04-27T15:54:52.184Z,9.31
2023-04-27T15:57:18.742Z,9.36
2023-04-27T15:59:45.968Z,9.35
2023-04-27T16:02:13.415Z,9.37
2023-04-27T16:04:40.128Z,9.41
2023-04-27T16:07:07.431Z,9.44
2023-04-27T16:09:34.268Z,9.40
2023-04-27T16:12:01.936Z,9.36
2023-04-27T16:14:28.530Z,9.32
2023-04-27T16:16:59.464Z,9.31
2023-04-27T16:19:27.273Z,9.33
2023-04-27T16:21:53.953Z,9.29
2023-04-27T16:24:21.251Z,9.32
2023-04-27T16:26:48.018Z,9.32
2023-04-27T16:29:14.842Z,9.25
2023-04-27T16:31:42.748Z,9.29
2023-04-27T16:34:09.563Z,9.28
2023-04-27T16:36:36.601Z,9.26
2023-04-27T16:39:05.092Z,9.26
2023-04-27T16:41:31.850Z,9.24
2023-04-27T16:43:58.444Z,9.28
2023-04-27T16:46:25.138Z,9.27
2023-04-27T16:48:51.762Z,9.24
2023-04-27T16:51:18.457Z,9.25
2023-04-27T16:53:45.048Z,9.24
2023-04-27T16:56:13.442Z,9.23
2023-04-27T16:58:41.006Z,9.23
2023-04-27T17:01:07.790Z,9.21
2023-04-27T17:03:36.104Z,9.20
2023-04-27T17:06:03.083Z,9.21
2023-04-27T17:08:29.831Z,9.18
2023-04-27T17:10:56.413Z,9.17
2023-04-27T17:13:23.006Z,9.17
2023-04-27T17:15:50.058Z,9.15
2023-04-27T17:18:16.726Z,9.15
2023-04-27T17:20:43.410Z,9.14
2023-04-27T17:23:09.927Z,9.15
2023-04-27T17:25:36.486Z,9.15
2023-04-27T17:28:03.686Z,9.13
2023-04-27T17:30:30.333Z,9.12
2023-04-27T17:32:57.213Z,9.13
2023-04-27T17:35:23.918Z,9.08
2023-04-27T17:37:51.895Z,9.09
2023-04-27T17:40:20.919Z,9.02
2023-04-27T17:42:47.701Z,9.04
2023-04-27T17:45:14.535Z,9.03
2023-04-27T17:47:41.394Z,9.03
2023-04-27T17:50:08.826Z,9.05
2023-04-27T17:52:35.721Z,9.02
2023-04-27T17:55:02.343Z,9.02
2023-04-27T17:57:28.864Z,9.01
2023-04-27T17:59:55.395Z,9.01
2023-04-27T18:02:22.073Z,8.98
2023-04-27T18:04:48.732Z,9.02
2023-04-27T18:07:18.480Z,8.98
2023-04-27T18:09:45.068Z,9.04
2023-04-27T18:12:11.606Z,9.04
2023-04-27T18:14:38.617Z,9.01
2023-04-27T18:17:05.832Z,9.02
2023-04-27T18:19:32.572Z,9.02
2023-04-27T18:21:59.423Z,9.02
2023-04-27T18:24:26.142Z,9.01
2023-04-27T18:26:52.690Z,9.03
2023-04-27T18:29:19.184Z,9.02
2023-04-27T18:31:46.221Z,9.03
2023-04-27T18:34:13.189Z,9.05
2023-04-27T18:36:39.795Z,9.05
2023-04-27T18:39:06.352Z,9.04
2023-04-27T18:41:32.910Z,9.04
2023-04-27T18:44:04.761Z,9.03
2023-04-27T18:46:32.098Z,9.02
2023-04-27T18:48:58.644Z,9.01
2023-04-27T18:51:26.331Z,8.99
2023-04-27T18:53:53.414Z,9.01
2023-04-27T18:56:20.169Z,9.01
2023-04-27T18:58:48.715Z,8.97
2023-04-27T19:01:23.196Z,8.97
2023-04-27T19:03:50.016Z,8.97
2023-04-27T19:06:18.776Z,8.98
2023-04-27T19:08:46.484Z,9.00
2023-04-27T19:11:14.082Z,8.98
2023-04-27T19:13:43.068Z,8.98
2023-04-27T19:16:10.437Z,8.98
2023-04-27T19:18:37.355Z,8.96
2023-04-27T19:21:04.191Z,8.92
2023-04-27T19:23:30.934Z,8.92
2023-04-27T19:26:06.027Z,8.89
2023-04-27T19:28:38.834Z,8.91
2023-04-27T19:31:07.241Z,8.89
2023-04-27T19:33:33.862Z,8.92
2023-04-27T19:36:00.402Z,8.93
2023-04-27T19:38:27.001Z,8.94
2023-04-27T19:40:53.540Z,8.92
2023-04-27T19:43:20.376Z,8.91
2023-04-27T19:45:49.133Z,8.91
2023-04-27T19:48:16.107Z,8.89
2023-04-27T19:50:43.754Z,8.88
2023-04-27T19:53:10.939Z,8.88
2023-04-27T19:55:37.880Z,8.84
2023-04-27T19:58:04.497Z,8.90
2023-04-27T20:00:31.055Z,8.88
2023-04-27T20:02:57.977Z,8.86
2023-04-27T20:05:25.192Z,8.88
2023-04-27T20:07:52.107Z,8.81
2023-04-27T20:10:18.872Z,8.85
2023-04-27T20:12:55.947Z,8.85
2023-04-27T20:15:23.185Z,8.87
2023-04-27T20:17:49.744Z,8.84
2023-04-27T20:20:16.709Z,8.86
2023-04-27T20:22:43.228Z,8.81
2023-04-27T20:25:09.925Z,8.83
2023-04-27T20:27:36.631Z,8.81
2023-04-27T20:30:04.216Z,8.86
2023-04-27T20:32:30.827Z,8.84
2023-04-27T20:34:57.380Z,8.86
2023-04-27T20:37:24.752Z,8.84
2023-04-27T20:39:52.181Z,8.86
2023-04-27T20:42:19.197Z,8.88
2023-04-27T20:44:48.642Z,8.89
2023-04-27T20:47:15.184Z,8.90
2023-04-27T20:49:42.185Z,8.85
2023-04-27T20:52:08.968Z,8.87
2023-04-27T20:54:36.241Z,8.86
2023-04-27T20:57:04.722Z,8.85
2023-04-27T20:59:31.236Z,8.83
2023-04-27T21:01:57.793Z,8.79
2023-04-27T21:04:24.546Z,8.74
2023-04-27T21:06:51.150Z,8.80
2023-04-27T21:09:17.673Z,8.80
2023-04-27T21:11:44.189Z,8.74
2023-04-27T21:14:10.830Z,8.76
2023-04-27T21:16:37.444Z,8.69
2023-04-27T21:19:04.033Z,8.73
2023-04-27T21:21:30.782Z,8.75
2023-04-27T21:24:07.070Z,8.71
2023-04-27T21:26:34.517Z,8.66
2023-04-27T21:29:01.550Z,8.69
2023-04-27T21:31:28.163Z,8.67
2023-04-27T21:33:54.938Z,8.66
2023-04-27T21:36:21.571Z,8.70
2023-04-27T21:38:48.130Z,8.68
2023-04-27T21:41:16.607Z,8.63
2023-04-27T21:43:44.159Z,8.62
2023-04-27T21:46:10.762Z,8.66
2023-04-27T21:48:37.327Z,8.66
2023-04-27T21:51:03.922Z,8.61
2023-04-27T21:53:30.641Z,8.62
2023-04-27T21:55:57.277Z,8.61
2023-04-27T21:58:24.292Z,8.63
2023-04-27T22:00:50.898Z,8.65
2023-04-27T22:03:17.794Z,8.59
2023-04-27T22:05:45.522Z,8.53
2023-04-27T22:08:12.189Z,8.57
2023-04-27T22:10:38.767Z,8.59
2023-04-27T22:13:15.094Z,8.54
2023-04-27T22:15:45.884Z,8.56
2023-04-27T22:18:14.518Z,8.49
2023-04-27T22:20:42.371Z,8.56
2023-04-27T22:23:09.478Z,8.56
2023-04-27T22:25:36.443Z,8.61
2023-04-27T22:28:03.139Z,8.59
2023-04-27T22:30:30.866Z,8.59
2023-04-27T22:32:57.640Z,8.56
2023-04-27T22:35:27.001Z,8.48
2023-04-27T22:37:57.836Z,8.53
2023-04-27T22:40:24.679Z,8.53
2023-04-27T22:42:51.907Z,8.45
2023-04-27T22:45:18.438Z,8.50
2023-04-27T22:47:45.769Z,8.47
2023-04-27T22:50:12.812Z,8.40
2023-04-27T22:52:43.987Z,8.47
2023-04-27T22:55:11.973Z,8.43
2023-04-27T22:57:39.469Z,8.36
2023-04-27T23:00:08.849Z,8.40
2023-04-27T23:02:35.560Z,8.38
2023-04-27T23:05:02.194Z,8.33
2023-04-27T23:07:28.869Z,8.36
2023-04-27T23:09:56.735Z,8.31
2023-04-27T23:12:26.910Z,8.30
2023-04-27T23:14:53.489Z,8.28
2023-04-27T23:17:22.581Z,8.25
2023-04-27T23:19:49.691Z,8.28
2023-04-27T23:22:16.269Z,8.34
2023-04-27T23:24:42.812Z,8.31
2023-04-27T23:27:09.354Z,8.27
2023-04-27T23:29:35.885Z,8.31
2023-04-27T23:32:04.334Z,8.32
2023-04-27T23:34:32.804Z,8.27
2023-04-27T23:36:59.755Z,8.27
2023-04-27T23:39:29.900Z,8.27
2023-04-27T23:41:56.415Z,8.24
2023-04-27T23:44:22.975Z,8.24
2023-04-27T23:46:49.487Z,8.23
2023-04-27T23:49:16.054Z,8.23
2023-04-27T23:51:42.588Z,8.22
2023-04-27T23:54:09.130Z,8.26
2023-04-27T23:56:36.675Z,8.20
2023-04-27T23:59:03.501Z,8.18
